Time;durP1;ratioP1;P1;durP2;ratioP2;P2;SDS_P1;SDS_P2;PMS_P1;PMS_P2;Temp;Humidity;BMP_temperature;BMP_pressure;BME280_temperature;BME280_humidity;BME280_pressure;Samples;Min_cycle;Max_cycle;Signal;HPM_P1;HPM_P2
2023/07/03 00:00:12;;;;;;;7.25;6.18;;;23.30;99.90;;;;;;4993510;28;20026;-71
2023/07/03 00:02:38;;;;;;;9.00;7.22;;;23.20;99.90;;;;;;4993470;28;20038;-71
2023/07/03 00:05:06;;;;;;;9.70;6.75;;;23.10;99.90;;;;;;4993680;28;20038;-71
2023/07/03 00:07:33;;;;;;;8.80;6.15;;;23.20;99.90;;;;;;4993448;28;20030;-71
2023/07/03 00:09:58;;;;;;;8.52;6.10;;;23.10;99.90;;;;;;4993412;28;20400;-71
2023/07/03 00:12:24;;;;;;;8.90;6.80;;;23.00;99.90;;;;;;4993445;28;20033;-71
2023/07/03 00:14:50;;;;;;;9.98;6.70;;;23.10;99.90;;;;;;4993597;28;20552;-71
2023/07/03 00:17:16;;;;;;;10.68;6.40;;;23.00;99.90;;;;;;4992916;28;20027;-71
2023/07/03 00:19:42;;;;;;;10.27;6.90;;;23.10;99.90;;;;;;4993426;28;20040;-71
2023/07/03 00:22:08;;;;;;;10.07;7.18;;;23.10;99.90;;;;;;4993419;28;20027;-71
2023/07/03 00:24:33;;;;;;;10.48;6.72;;;23.00;99.90;;;;;;4993502;28;20465;-71
2023/07/03 00:26:59;;;;;;;9.52;6.90;;;23.00;99.90;;;;;;4993252;28;20031;-71
2023/07/03 00:29:31;;;;;;;9.38;6.60;;;23.20;99.90;;;;;;4993071;28;20031;-71
2023/07/03 00:31:58;;;;;;;10.05;7.20;;;23.30;99.90;;;;;;4992795;28;20454;-71
2023/07/03 00:34:24;;;;;;;10.63;6.90;;;23.30;99.90;;;;;;4993133;28;20104;-71
2023/07/03 00:36:50;;;;;;;8.88;7.18;;;23.20;99.90;;;;;;4994077;28;20037;-71
2023/07/03 00:39:15;;;;;;;8.93;6.30;;;23.20;99.90;;;;;;4997009;28;20446;-71
2023/07/03 00:41:42;;;;;;;9.95;6.45;;;23.10;99.90;;;;;;4996826;28;20080;-71
2023/07/03 00:44:12;;;;;;;7.93;6.75;;;23.00;99.90;;;;;;4996817;28;20053;-71
2023/07/03 00:46:42;;;;;;;8.13;6.18;;;23.00;99.90;;;;;;4996802;28;20126;-71
2023/07/03 00:49:09;;;;;;;7.97;6.10;;;23.00;99.90;;;;;;4996819;28;20030;-71
2023/07/03 00:51:42;;;;;;;8.52;6.63;;;23.10;99.90;;;;;;4996876;28;20499;-71
2023/07/03 00:54:08;;;;;;;9.43;7.05;;;23.20;99.90;;;;;;4996667;28;20136;-71
2023/07/03 00:56:34;;;;;;;8.45;6.68;;;23.10;99.90;;;;;;4996733;28;20070;-71
2023/07/03 00:59:01;;;;;;;9.95;6.95;;;23.10;99.90;;;;;;4996432;28;20084;-71
2023/07/03 01:02:03;;;;;;;9.43;6.75;;;23.10;99.90;;;;;;4996812;28;20034;-71
2023/07/03 01:04:37;;;;;;;9.57;7.15;;;23.20;99.90;;;;;;4987875;28;20184;-71
2023/07/03 01:07:13;;;;;;;8.48;7.47;;;23.20;99.90;;;;;;4997044;28;20037;-71
2023/07/03 01:09:49;;;;;;;9.98;6.82;;;23.30;99.90;;;;;;4996318;28;20027;-71
2023/07/03 01:12:17;;;;;;;9.45;6.82;;;23.20;99.90;;;;;;4996522;28;20553;-71
2023/07/03 01:14:45;;;;;;;10.70;7.80;;;23.20;99.90;;;;;;4996686;28;20026;-72
2023/07/03 01:17:13;;;;;;;9.63;6.75;;;23.00;99.90;;;;;;4996500;28;20153;-71
2023/07/03 01:19:44;;;;;;;10.07;7.97;;;23.00;99.90;;;;;;4995975;28;20030;-71
2023/07/03 01:22:20;;;;;;;9.43;7.70;;;23.00;99.90;;;;;;4996308;28;20060;-71
2023/07/03 01:25:16;;;;;;;13.35;7.93;;;23.10;99.90;;;;;;4996255;28;20424;-71
2023/07/03 01:27:45;;;;;;;11.13;7.28;;;23.10;99.90;;;;;;4987260;28;20054;-72
2023/07/03 01:30:14;;;;;;;9.10;7.13;;;23.10;99.90;;;;;;4995958;28;20033;-71
2023/07/03 01:32:42;;;;;;;7.97;6.50;;;23.00;99.90;;;;;;4995888;28;20038;-71
2023/07/03 01:35:09;;;;;;;7.53;5.75;;;23.00;99.90;;;;;;4996081;28;20034;-71
2023/07/03 01:37:39;;;;;;;8.45;6.07;;;22.90;99.90;;;;;;4995339;28;20033;-71
2023/07/03 01:40:07;;;;;;;7.63;5.68;;;22.80;99.90;;;;;;4995769;28;20366;-71
2023/07/03 01:42:35;;;;;;;8.02;6.00;;;22.70;99.90;;;;;;4995749;28;20358;-71
2023/07/03 01:45:02;;;;;;;7.93;6.60;;;22.80;99.90;;;;;;4995826;28;20033;-72
2023/07/03 01:47:27;;;;;;;8.25;6.43;;;22.70;99.90;;;;;;4995632;28;20034;-71
2023/07/03 01:49:53;;;;;;;8.25;6.50;;;22.70;99.90;;;;;;4995542;28;20477;-71
2023/07/03 01:52:27;;;;;;;9.48;6.68;;;22.60;99.90;;;;;;4995501;28;20449;-71
2023/07/03 01:55:05;;;;;;;7.53;6.13;;;22.50;99.90;;;;;;4995662;28;20038;-71
2023/07/03 01:57:41;;;;;;;8.98;7.45;;;22.30;99.90;;;;;;4995744;28;20109;-71
2023/07/03 02:00:10;;;;;;;8.65;6.78;;;22.30;99.90;;;;;;4995276;28;20022;-71
2023/07/03 02:02:37;;;;;;;8.27;6.63;;;22.30;99.90;;;;;;4995145;28;20491;-71
2023/07/03 02:05:10;;;;;;;8.75;6.85;;;22.20;99.90;;;;;;4995429;28;20109;-71
2023/07/03 02:07:37;;;;;;;10.73;7.47;;;22.10;99.90;;;;;;4995210;28;20041;-77
2023/07/03 02:10:04;;;;;;;8.90;6.95;;;22.20;99.90;;;;;;4995297;28;20034;-71
2023/07/03 02:12:30;;;;;;;10.32;7.80;;;22.30;99.90;;;;;;4995289;28;20096;-71
2023/07/03 02:15:00;;;;;;;13.63;8.55;;;22.30;99.90;;;;;;4995066;28;20476;-72
2023/07/03 02:17:25;;;;;;;10.48;8.55;;;22.30;99.90;;;;;;4995049;28;20026;-71
2023/07/03 02:19:51;;;;;;;9.38;8.23;;;22.30;99.90;;;;;;4994983;28;20038;-71
2023/07/03 02:22:17;;;;;;;10.32;8.32;;;22.20;99.90;;;;;;4994749;28;20050;-71
2023/07/03 02:24:42;;;;;;;10.57;7.53;;;22.10;99.90;;;;;;4995046;28;20018;-71
2023/07/03 02:27:08;;;;;;;9.95;7.45;;;21.90;99.90;;;;;;4994946;28;20053;-71
2023/07/03 02:29:34;;;;;;;9.13;7.65;;;22.00;99.90;;;;;;4995038;28;20145;-71
2023/07/03 02:31:59;;;;;;;9.10;7.10;;;22.00;99.90;;;;;;4994859;28;20049;-71
2023/07/03 02:34:25;;;;;;;11.02;9.35;;;21.90;99.90;;;;;;4994988;28;20038;-71
2023/07/03 02:36:51;;;;;;;9.27;7.53;;;21.80;99.90;;;;;;4994634;28;20392;-71
2023/07/03 02:39:16;;;;;;;10.15;8.07;;;21.80;99.90;;;;;;4994795;28;20061;-71
2023/07/03 02:41:42;;;;;;;13.43;8.38;;;21.80;99.90;;;;;;4994719;28;20041;-71
2023/07/03 02:44:08;;;;;;;13.35;8.90;;;21.70;99.90;;;;;;4994784;28;20105;-71
2023/07/03 02:46:34;;;;;;;9.32;7.35;;;21.60;99.90;;;;;;4994662;28;20117;-71
2023/07/03 02:48:59;;;;;;;10.43;8.45;;;21.40;99.90;;;;;;4994456;28;20499;-71
2023/07/03 02:51:25;;;;;;;10.88;8.30;;;21.50;99.90;;;;;;4994380;28;20391;-71
2023/07/03 02:53:51;;;;;;;12.90;8.98;;;21.60;99.90;;;;;;4994545;28;20038;-71
2023/07/03 02:56:16;;;;;;;10.73;8.23;;;21.50;99.90;;;;;;4994436;28;20027;-72
2023/07/03 02:58:42;;;;;;;9.35;7.78;;;21.50;99.90;;;;;;4994397;28;20109;-71
2023/07/03 03:01:08;;;;;;;9.77;8.30;;;21.50;99.90;;;;;;4986439;28;20031;-72
2023/07/03 03:03:34;;;;;;;13.45;8.27;;;21.50;99.90;;;;;;4979788;28;20050;-73
2023/07/03 03:05:59;;;;;;;9.88;7.85;;;21.50;99.90;;;;;;4989736;28;20069;-76
2023/07/03 03:08:25;;;;;;;9.30;8.00;;;21.60;99.90;;;;;;4990374;28;20030;-73
2023/07/03 03:10:52;;;;;;;10.15;8.18;;;21.60;99.90;;;;;;4990366;28;20110;-73
2023/07/03 03:13:18;;;;;;;11.48;9.00;;;21.60;99.90;;;;;;4990441;28;20042;-72
2023/07/03 03:15:43;;;;;;;10.35;8.27;;;21.50;99.90;;;;;;4990731;28;20048;-73
2023/07/03 03:18:10;;;;;;;10.73;7.78;;;21.60;99.90;;;;;;4987884;28;20084;-73
2023/07/03 03:20:36;;;;;;;10.80;8.73;;;21.60;99.90;;;;;;4987975;28;20057;-73
2023/07/03 03:23:01;;;;;;;11.38;8.55;;;21.50;99.90;;;;;;4988827;28;20377;-83
2023/07/03 03:25:27;;;;;;;9.38;7.93;;;21.60;99.90;;;;;;4991169;28;20388;-73
2023/07/03 03:27:53;;;;;;;10.80;8.07;;;21.60;99.90;;;;;;4990520;28;20042;-73
2023/07/03 03:30:19;;;;;;;10.63;8.82;;;21.70;99.90;;;;;;4990638;28;20069;-73
2023/07/03 03:32:44;;;;;;;8.90;7.72;;;21.60;99.90;;;;;;4990554;28;20452;-72
2023/07/03 03:35:10;;;;;;;10.20;8.30;;;21.60;99.90;;;;;;4990253;28;20030;-73
2023/07/03 03:37:36;;;;;;;10.63;8.07;;;21.60;99.90;;;;;;4990553;28;20372;-81
2023/07/03 03:40:03;;;;;;;11.27;9.30;;;21.70;99.90;;;;;;4990785;28;20034;-73
2023/07/03 03:42:29;;;;;;;12.52;8.13;;;21.70;99.90;;;;;;4990502;28;20038;-72
2023/07/03 03:44:55;;;;;;;11.52;8.75;;;21.80;99.90;;;;;;4990562;28;20518;-72
2023/07/03 03:47:21;;;;;;;11.07;8.77;;;21.80;99.90;;;;;;4990412;28;20026;-72
2023/07/03 03:49:47;;;;;;;12.05;10.25;;;21.80;99.90;;;;;;4990502;28;20033;-73
2023/07/03 03:52:13;;;;;;;10.73;8.32;;;21.80;99.90;;;;;;4990162;28;20023;-74
2023/07/03 03:54:38;;;;;;;12.77;9.07;;;21.80;99.90;;;;;;4990228;28;20169;-72
2023/07/03 03:57:05;;;;;;;10.90;8.93;;;21.90;99.90;;;;;;4988311;28;20081;-75
2023/07/03 03:59:31;;;;;;;10.13;7.90;;;21.80;99.90;;;;;;4987373;28;20057;-73
2023/07/03 04:01:56;;;;;;;11.18;9.00;;;21.80;99.90;;;;;;4987569;28;20468;-73
2023/07/03 04:04:22;;;;;;;13.27;9.68;;;21.80;99.90;;;;;;4987352;28;20026;-73
2023/07/03 04:06:48;;;;;;;14.23;9.27;;;21.70;99.90;;;;;;4987366;28;20031;-77
2023/07/03 04:09:14;;;;;;;11.98;9.63;;;21.70;99.90;;;;;;4990138;28;20037;-72
2023/07/03 04:11:39;;;;;;;12.30;9.57;;;21.70;99.90;;;;;;4992426;28;20026;-73
2023/07/03 04:14:05;;;;;;;9.98;8.75;;;21.80;99.90;;;;;;4993937;28;20066;-73
2023/07/03 04:16:32;;;;;;;12.55;8.95;;;21.70;99.90;;;;;;4993727;28;20089;-74
2023/07/03 04:18:57;;;;;;;10.52;9.23;;;21.90;99.90;;;;;;4993381;28;20361;-73
2023/07/03 04:21:23;;;;;;;11.18;8.80;;;21.90;99.90;;;;;;4992427;28;20041;-72
2023/07/03 04:23:49;;;;;;;14.20;9.20;;;22.10;99.90;;;;;;4993509;28;20029;-73
2023/07/03 04:26:15;;;;;;;11.60;9.23;;;22.10;99.90;;;;;;4993811;28;20100;-74
2023/07/03 04:28:41;;;;;;;11.48;9.00;;;22.20;99.90;;;;;;4993332;28;20088;-73
2023/07/03 04:31:07;;;;;;;11.25;9.38;;;22.30;99.90;;;;;;4993500;28;20057;-73
2023/07/03 04:33:33;;;;;;;10.02;8.02;;;22.40;99.90;;;;;;4993266;28;20034;-73
2023/07/03 04:35:58;;;;;;;11.32;9.75;;;22.50;99.90;;;;;;4993569;28;20065;-73
2023/07/03 04:38:24;;;;;;;14.75;8.00;;;22.50;99.90;;;;;;4993314;28;20085;-73
2023/07/03 04:40:51;;;;;;;11.95;8.30;;;22.50;99.90;;;;;;4993606;28;20038;-73
2023/07/03 04:43:17;;;;;;;11.10;8.43;;;22.40;99.90;;;;;;4993387;28;20476;-73
2023/07/03 04:45:46;;;;;;;12.80;9.05;;;22.30;99.90;;;;;;4993452;28;20097;-73
2023/07/03 04:48:12;;;;;;;13.15;9.30;;;22.20;99.90;;;;;;4993156;28;20031;-73
2023/07/03 04:50:38;;;;;;;11.32;9.60;;;22.00;99.90;;;;;;4993630;28;20030;-72
2023/07/03 04:53:04;;;;;;;10.45;9.32;;;21.90;99.90;;;;;;4993311;28;20109;-73
2023/07/03 04:55:31;;;;;;;9.77;8.77;;;21.90;99.90;;;;;;4993434;28;20037;-73
2023/07/03 04:57:57;;;;;;;13.80;10.52;;;21.90;99.90;;;;;;4993346;28;20041;-73
2023/07/03 05:00:24;;;;;;;15.05;10.52;;;22.00;99.90;;;;;;4993163;28;20076;-72
2023/07/03 05:02:51;;;;;;;12.95;9.85;;;21.90;99.90;;;;;;4992712;28;20037;-73
2023/07/03 05:05:18;;;;;;;11.52;10.32;;;21.80;99.90;;;;;;4993297;28;20030;-82
2023/07/03 05:07:45;;;;;;;12.90;9.98;;;21.90;99.90;;;;;;4993187;28;20042;-73
2023/07/03 05:10:13;;;;;;;12.43;9.57;;;21.80;99.90;;;;;;4993341;28;20030;-73
2023/07/03 05:12:39;;;;;;;11.55;10.35;;;21.70;99.90;;;;;;4991801;28;20041;-72
2023/07/03 05:15:09;;;;;;;10.60;9.35;;;21.70;99.90;;;;;;4992901;28;20026;-72
2023/07/03 05:17:38;;;;;;;14.05;10.10;;;21.70;99.90;;;;;;4992896;28;20129;-73
2023/07/03 05:20:06;;;;;;;12.75;10.05;;;21.60;99.90;;;;;;4992977;28;20018;-73
2023/07/03 05:22:32;;;;;;;13.52;10.55;;;21.60;99.90;;;;;;4992472;28;20041;-72
2023/07/03 05:24:59;;;;;;;11.63;10.43;;;21.70;99.90;;;;;;4992815;28;20026;-73
2023/07/03 05:27:25;;;;;;;11.18;9.25;;;21.80;99.90;;;;;;4992499;28;20461;-73
2023/07/03 05:29:51;;;;;;;13.07;10.65;;;21.70;99.90;;;;;;4992409;28;20058;-74
2023/07/03 05:32:16;;;;;;;13.23;9.52;;;21.70;99.90;;;;;;4992542;28;20448;-76
2023/07/03 05:34:42;;;;;;;11.48;9.68;;;21.70;99.90;;;;;;4992705;28;20030;-73
2023/07/03 05:37:08;;;;;;;13.45;10.65;;;21.60;99.90;;;;;;4992689;28;20026;-73
2023/07/03 05:39:34;;;;;;;12.45;10.35;;;21.70;99.90;;;;;;4992162;28;20618;-73
2023/07/03 05:42:00;;;;;;;12.32;11.00;;;21.60;99.90;;;;;;4991701;28;20026;-73
2023/07/03 05:44:25;;;;;;;11.95;10.75;;;21.70;99.90;;;;;;4989698;28;20029;-76
2023/07/03 05:46:51;;;;;;;14.48;10.90;;;21.60;99.90;;;;;;4990000;28;20084;-73
2023/07/03 05:49:17;;;;;;;14.43;11.35;;;21.70;99.90;;;;;;4989660;28;20034;-74
2023/07/03 05:51:42;;;;;;;11.95;10.75;;;21.70;99.90;;;;;;4990089;28;20026;-80
2023/07/03 05:54:08;;;;;;;14.02;10.18;;;21.70;99.90;;;;;;4989976;28;20049;-76
2023/07/03 05:56:34;;;;;;;11.63;10.43;;;21.80;99.90;;;;;;4989807;28;20145;-74
2023/07/03 05:58:59;;;;;;;13.75;10.07;;;21.90;99.90;;;;;;4989331;28;20058;-73
2023/07/03 06:01:27;;;;;;;11.35;10.10;;;21.90;99.90;;;;;;4989747;28;20061;-72
2023/07/03 06:03:53;;;;;;;15.02;11.63;;;21.90;99.90;;;;;;4989512;28;20026;-74
2023/07/03 06:06:19;;;;;;;12.00;10.48;;;21.90;99.90;;;;;;4989748;28;20080;-73
2023/07/03 06:08:44;;;;;;;11.38;10.18;;;21.90;99.90;;;;;;4989478;28;20509;-82
2023/07/03 06:11:10;;;;;;;12.95;11.30;;;21.90;99.90;;;;;;4989904;28;20045;-73
2023/07/03 06:13:35;;;;;;;15.30;10.77;;;21.90;99.90;;;;;;4989323;28;20034;-73
2023/07/03 06:16:01;;;;;;;13.07;11.07;;;21.90;99.90;;;;;;4989880;28;20030;-73
2023/07/03 06:18:27;;;;;;;14.00;10.68;;;22.00;99.90;;;;;;4989775;28;20610;-80
2023/07/03 06:20:53;;;;;;;12.00;10.60;;;22.10;99.90;;;;;;4989157;28;20101;-73
2023/07/03 06:23:18;;;;;;;11.82;10.18;;;22.10;99.90;;;;;;4988179;28;20034;-78
2023/07/03 06:25:44;;;;;;;12.98;10.23;;;22.00;99.90;;;;;;4987374;28;20018;-81
2023/07/03 06:28:10;;;;;;;13.20;10.75;;;22.20;99.90;;;;;;4987284;28;20129;-74
2023/07/03 06:30:35;;;;;;;12.48;9.80;;;22.30;99.90;;;;;;4988633;28;20029;-74
2023/07/03 06:33:01;;;;;;;11.93;10.40;;;22.40;99.90;;;;;;4988779;28;20511;-73
2023/07/03 06:35:26;;;;;;;14.95;11.43;;;22.40;99.90;;;;;;4988109;28;20979;-73
2023/07/03 06:37:53;;;;;;;13.48;10.85;;;22.60;99.90;;;;;;4988203;28;20378;-74
2023/07/03 06:40:19;;;;;;;12.10;10.60;;;22.60;99.90;;;;;;4988428;28;20041;-76
2023/07/03 06:42:44;;;;;;;13.32;10.98;;;22.70;99.90;;;;;;4988528;28;20022;-78
2023/07/03 06:45:11;;;;;;;16.48;11.75;;;22.90;99.90;;;;;;4988712;28;20113;-80
2023/07/03 06:47:37;;;;;;;15.82;10.30;;;23.10;99.90;;;;;;4988715;28;20476;-75
2023/07/03 06:50:02;;;;;;;12.68;10.68;;;23.40;99.90;;;;;;4988549;28;20030;-73
2023/07/03 06:52:28;;;;;;;14.68;10.65;;;23.50;99.90;;;;;;4988368;28;20121;-72
2023/07/03 06:54:54;;;;;;;12.57;10.10;;;23.70;99.90;;;;;;4989047;28;20611;-83
2023/07/03 06:57:19;;;;;;;13.25;9.85;;;23.60;99.90;;;;;;4988398;28;20044;-74
2023/07/03 06:59:45;;;;;;;12.27;10.30;;;23.60;99.90;;;;;;4988276;28;20041;-73
2023/07/03 07:02:11;;;;;;;11.63;9.75;;;23.60;99.90;;;;;;4988306;28;20037;-75
2023/07/03 07:04:37;;;;;;;11.45;10.18;;;23.60;99.90;;;;;;4988874;28;20041;-74
2023/07/03 07:07:02;;;;;;;10.75;9.38;;;23.60;99.90;;;;;;4988627;28;20463;-73
2023/07/03 07:09:28;;;;;;;11.32;9.25;;;23.80;99.90;;;;;;4988242;28;20710;-73
2023/07/03 07:11:54;;;;;;;12.00;9.23;;;23.80;99.90;;;;;;4988235;28;20034;-73
2023/07/03 07:14:19;;;;;;;11.25;9.73;;;23.90;99.90;;;;;;4988351;28;20033;-80
2023/07/03 07:16:45;;;;;;;14.48;9.57;;;24.00;99.90;;;;;;4988478;28;20033;-76
2023/07/03 07:19:11;;;;;;;12.23;9.20;;;24.20;99.90;;;;;;4988418;28;20026;-73
2023/07/03 07:21:41;;;;;;;11.93;10.02;;;24.20;99.90;;;;;;4988452;28;20057;-73
2023/07/03 07:24:21;;;;;;;14.30;9.57;;;24.30;99.90;;;;;;4988213;28;20030;-73
2023/07/03 07:26:48;;;;;;;13.18;9.23;;;24.40;99.90;;;;;;4988074;28;20102;-74
2023/07/03 07:29:14;;;;;;;11.57;8.32;;;24.30;99.90;;;;;;4988577;28;20065;-73
2023/07/03 07:31:40;;;;;;;11.43;9.20;;;24.40;99.90;;;;;;4988215;28;20413;-73
2023/07/03 07:34:07;;;;;;;10.40;8.63;;;24.50;99.90;;;;;;4988308;28;20034;-73
2023/07/03 07:36:34;;;;;;;11.80;8.07;;;24.50;99.90;;;;;;4988123;28;20061;-77
2023/07/03 07:39:01;;;;;;;13.20;8.48;;;24.30;99.90;;;;;;4987499;28;20034;-72
2023/07/03 07:41:27;;;;;;;12.10;8.75;;;24.30;99.90;;;;;;4987701;28;20026;-75
2023/07/03 07:43:54;;;;;;;9.55;7.68;;;24.80;99.90;;;;;;4988018;28;20448;-74
2023/07/03 07:46:21;;;;;;;10.98;8.23;;;25.80;99.90;;;;;;4987557;28;20018;-74
2023/07/03 07:48:47;;;;;;;11.75;8.23;;;26.10;99.90;;;;;;4987594;28;20697;-76
2023/07/03 07:51:13;;;;;;;10.38;8.13;;;26.50;99.90;;;;;;4988128;28;20489;-74
2023/07/03 07:53:39;;;;;;;11.82;7.45;;;27.10;99.90;;;;;;4987587;28;20128;-73
2023/07/03 07:56:07;;;;;;;11.23;7.80;;;26.50;99.90;;;;;;4987744;28;20109;-82
2023/07/03 07:58:33;;;;;;;11.48;8.68;;;26.40;99.90;;;;;;4987872;28;20022;-73
2023/07/03 08:00:59;;;;;;;14.93;8.05;;;26.00;99.90;;;;;;4987864;28;20065;-73
2023/07/03 08:03:25;;;;;;;14.77;7.60;;;26.10;99.90;;;;;;4987812;28;20054;-73
2023/07/03 08:06:03;;;;;;;10.95;7.40;;;26.40;99.90;;;;;;4988187;28;20057;-74
2023/07/03 08:08:30;;;;;;;14.50;9.20;;;26.10;99.90;;;;;;4987875;28;20029;-73
2023/07/03 08:10:59;;;;;;;12.48;8.77;;;26.30;99.90;;;;;;4987609;28;20058;-73
2023/07/03 08:13:25;;;;;;;11.77;8.65;;;26.30;99.90;;;;;;4987665;28;20080;-73
2023/07/03 08:15:51;;;;;;;11.15;8.57;;;26.30;99.90;;;;;;4987614;28;20064;-74
2023/07/03 08:18:18;;;;;;;11.43;8.30;;;26.10;99.90;;;;;;4987753;28;20065;-83
2023/07/03 08:20:44;;;;;;;11.07;8.30;;;26.50;99.90;;;;;;4987912;28;20045;-75
2023/07/03 08:23:10;;;;;;;9.77;8.15;;;26.40;99.90;;;;;;4987817;28;20046;-74
2023/07/03 08:25:36;;;;;;;9.20;7.55;;;26.60;99.90;;;;;;4987860;28;20384;-73
2023/07/03 08:28:02;;;;;;;10.63;8.40;;;26.90;99.90;;;;;;4987406;28;20146;-73
2023/07/03 08:30:28;;;;;;;13.25;8.60;;;27.20;99.90;;;;;;4987673;28;20157;-73
2023/07/03 08:32:54;;;;;;;14.20;9.68;;;26.90;99.90;;;;;;4987394;28;20113;-74
2023/07/03 08:35:20;;;;;;;10.20;9.10;;;27.20;99.90;;;;;;4987401;28;20033;-74
2023/07/03 08:37:46;;;;;;;11.35;9.18;;;27.10;99.90;;;;;;4987315;28;20022;-73
2023/07/03 08:40:17;;;;;;;10.60;9.48;;;26.60;99.90;;;;;;4987322;28;20480;-75
2023/07/03 08:42:58;;;;;;;12.10;8.77;;;26.80;99.90;;;;;;4987343;28;20408;-74
2023/07/03 08:45:49;;;;;;;11.10;9.50;;;26.60;99.90;;;;;;4987175;28;20026;-73
2023/07/03 08:48:24;;;;;;;10.95;9.82;;;26.90;99.90;;;;;;4987406;28;20503;-74
2023/07/03 08:50:56;;;;;;;11.35;9.43;;;27.00;99.90;;;;;;4987469;28;20101;-74
2023/07/03 08:53:33;;;;;;;11.20;9.25;;;27.10;99.90;;;;;;4987152;28;20408;-74
2023/07/03 08:56:14;;;;;;;10.10;8.27;;;27.30;99.90;;;;;;4987099;28;20191;-73
2023/07/03 08:58:40;;;;;;;13.73;8.63;;;27.40;99.90;;;;;;4989177;28;20045;-75
2023/07/03 09:01:15;;;;;;;9.82;8.25;;;27.20;99.90;;;;;;4990853;28;20468;-75
2023/07/03 09:03:59;;;;;;;11.30;8.85;;;26.70;99.90;;;;;;4990761;28;20041;-75
2023/07/03 09:07:01;;;;;;;9.77;8.40;;;27.00;99.90;;;;;;4990471;28;20491;-75
2023/07/03 09:09:45;;;;;;;12.07;8.25;;;27.80;99.90;;;;;;4990364;28;20027;-74
2023/07/03 09:12:29;;;;;;;10.65;8.13;;;28.30;99.90;;;;;;4990469;28;20058;-74
2023/07/03 09:15:07;;;;;;;12.20;8.43;;;27.80;99.90;;;;;;4990839;28;20034;-73
2023/07/03 09:17:34;;;;;;;11.00;9.07;;;27.30;99.90;;;;;;4990742;28;20106;-74
2023/07/03 09:20:01;;;;;;;10.20;7.95;;;27.10;99.90;;;;;;4990662;28;20109;-73
2023/07/03 09:22:58;;;;;;;12.70;9.55;;;27.40;99.90;;;;;;4990697;28;20688;-81
2023/07/03 09:25:34;;;;;;;10.38;8.50;;;27.80;99.90;;;;;;4993385;28;20043;-73
2023/07/03 09:28:02;;;;;;;12.48;8.25;;;27.80;99.90;;;;;;4990142;28;20102;-82
2023/07/03 09:30:27;;;;;;;10.88;7.50;;;27.80;99.90;;;;;;4990603;28;20034;-73
2023/07/03 09:32:53;;;;;;;11.73;9.20;;;27.90;99.90;;;;;;4990070;28;20039;-74
2023/07/03 09:35:20;;;;;;;9.45;8.30;;;27.90;99.90;;;;;;4990194;28;20030;-75
2023/07/03 09:37:57;;;;;;;11.93;9.15;;;28.00;99.90;;;;;;4989859;28;20054;-73
2023/07/03 09:40:33;;;;;;;9.57;7.97;;;28.50;99.90;;;;;;4990018;28;20026;-73
2023/07/03 09:43:00;;;;;;;10.88;8.52;;;29.00;99.90;;;;;;4989947;28;20034;-73
2023/07/03 09:45:34;;;;;;;9.18;7.72;;;29.40;99.60;;;;;;4989765;28;20026;-73
2023/07/03 09:48:01;;;;;;;;;;;29.00;99.80;;;;;;4990073;28;20488;-75
2023/07/03 09:50:30;;;;;;;9.10;8.05;;;28.80;99.80;;;;;;4989537;28;19906;-74
2023/07/03 09:52:57;;;;;;;10.63;9.07;;;28.80;99.90;;;;;;4989180;28;20034;-74
2023/07/03 09:55:23;;;;;;;9.98;8.93;;;28.80;99.20;;;;;;4989699;28;20029;-75
2023/07/03 09:57:49;;;;;;;11.43;9.45;;;29.00;98.20;;;;;;4989741;28;20105;-76
2023/07/03 10:00:20;;;;;;;8.70;7.70;;;29.60;98.70;;;;;;4989669;28;20113;-73
2023/07/03 10:02:50;;;;;;;9.35;7.95;;;29.40;98.00;;;;;;4989511;28;20093;-73
2023/07/03 10:05:19;;;;;;;12.68;8.88;;;29.30;98.60;;;;;;4989820;28;20062;-85
2023/07/03 10:07:46;;;;;;;8.35;7.38;;;29.30;98.70;;;;;;4989163;28;20049;-77
2023/07/03 10:10:19;;;;;;;11.30;8.75;;;29.10;98.60;;;;;;4989459;28;20026;-74
2023/07/03 10:12:54;;;;;;;10.10;9.07;;;28.70;98.80;;;;;;4989452;28;20053;-73
2023/07/03 10:15:24;;;;;;;10.77;8.98;;;28.30;99.50;;;;;;4989223;28;20038;-76
2023/07/03 10:17:57;;;;;;;10.95;9.45;;;28.30;99.90;;;;;;4989441;28;20029;-73
2023/07/03 10:20:27;;;;;;;11.23;9.43;;;28.40;99.90;;;;;;4989250;28;20093;-82
2023/07/03 10:22:54;;;;;;;10.77;8.43;;;28.20;99.90;;;;;;4989283;28;20026;-75
2023/07/03 10:25:37;;;;;;;11.10;9.70;;;28.10;99.90;;;;;;4989772;28;20034;-74
2023/07/03 10:28:09;;;;;;;8.00;5.57;;;28.30;99.90;;;;;;5004103;28;20392;-73
2023/07/03 10:30:39;;;;;;;6.78;4.20;;;28.60;99.10;;;;;;4989298;28;20037;-74
2023/07/03 10:33:14;;;;;;;6.43;4.18;;;28.90;98.40;;;;;;4989237;28;20484;-73
2023/07/03 10:35:42;;;;;;;5.38;4.05;;;28.80;98.20;;;;;;4989194;28;20476;-74
2023/07/03 10:38:18;;;;;;;6.80;4.35;;;28.70;98.40;;;;;;4988470;28;20496;-74
2023/07/03 10:41:14;;;;;;;5.57;4.07;;;28.50;98.20;;;;;;4989017;28;20034;-75
2023/07/03 10:43:46;;;;;;;6.68;3.90;;;28.50;98.20;;;;;;4988911;28;20555;-75
2023/07/03 10:46:21;;;;;;;7.25;4.85;;;28.80;97.90;;;;;;4989050;28;20145;-73
2023/07/03 10:48:48;;;;;;;6.63;4.63;;;28.60;98.10;;;;;;4988981;28;20124;-73
2023/07/03 10:51:29;;;;;;;6.18;4.60;;;28.50;98.20;;;;;;4988806;28;20116;-73
2023/07/03 10:54:05;;;;;;;22.83;6.50;;;27.90;98.70;;;;;;4988641;28;20626;-75
2023/07/03 10:56:31;;;;;;;9.68;5.55;;;27.50;99.90;;;;;;4988886;28;20495;-74
2023/07/03 10:59:20;;;;;;;10.90;5.30;;;26.90;99.90;;;;;;4988469;28;20038;-74
2023/07/03 11:02:16;;;;;;;6.60;5.28;;;26.80;99.90;;;;;;4988718;28;20030;-83
2023/07/03 11:04:53;;;;;;;6.20;4.68;;;26.90;99.90;;;;;;4996402;28;20031;-74
2023/07/03 11:07:45;;;;;;;7.70;5.20;;;26.60;99.90;;;;;;4987796;28;20033;-73
2023/07/03 11:10:31;;;;;;;7.32;4.80;;;26.60;99.90;;;;;;4988674;28;20109;-74
2023/07/03 11:13:11;;;;;;;6.78;5.15;;;26.30;99.90;;;;;;4988149;28;20038;-76
2023/07/03 11:16:08;;;;;;;7.47;4.50;;;26.10;99.90;;;;;;4987911;28;20022;-74
2023/07/03 11:18:39;;;;;;;5.45;4.47;;;25.90;99.90;;;;;;4987982;28;20034;-74
2023/07/03 11:21:17;;;;;;;7.30;4.55;;;25.70;99.90;;;;;;4987445;28;20026;-74
2023/07/03 11:24:00;;;;;;;7.10;5.32;;;25.50;99.90;;;;;;4987850;28;20023;-74
2023/07/03 11:26:36;;;;;;;;;;;25.40;99.90;;;;;;4987825;28;20026;-81
2023/07/03 11:29:05;;;;;;;15.55;6.68;;;25.30;99.90;;;;;;4987770;28;20005;-74
2023/07/03 11:31:31;;;;;;;9.40;6.35;;;24.80;99.90;;;;;;4988314;28;20042;-73
2023/07/03 11:33:58;;;;;;;14.52;6.70;;;24.40;99.90;;;;;;4988430;28;20046;-81
2023/07/03 11:36:35;;;;;;;10.93;5.85;;;24.30;99.90;;;;;;4988351;28;20026;-82
2023/07/03 11:39:19;;;;;;;9.82;5.78;;;23.70;99.90;;;;;;4988443;28;20026;-74
2023/07/03 11:41:49;;;;;;;7.78;5.35;;;23.20;99.90;;;;;;4987930;28;20026;-84
2023/07/03 11:44:38;;;;;;;10.30;5.85;;;23.10;99.90;;;;;;4988312;28;20025;-74
2023/07/03 11:47:06;;;;;;;13.13;5.78;;;23.10;99.90;;;;;;4987021;28;20687;-76
2023/07/03 11:49:37;;;;;;;20.60;9.20;;;23.10;99.90;;;;;;4987331;28;20037;-75
2023/07/03 11:52:06;;;;;;;16.40;9.23;;;22.90;99.90;;;;;;4988566;28;20042;-74
2023/07/03 11:54:35;;;;;;;22.23;12.43;;;22.00;99.90;;;;;;4987520;28;20438;-74
2023/07/03 11:57:10;;;;;;;18.75;11.10;;;22.00;99.90;;;;;;4989031;28;20034;-74
2023/07/03 11:59:39;;;;;;;19.52;11.68;;;22.00;99.90;;;;;;4988851;28;20472;-79
2023/07/03 12:02:10;;;;;;;18.00;11.68;;;22.10;99.90;;;;;;4988833;28;20023;-80
2023/07/03 12:04:45;;;;;;;20.52;11.27;;;21.10;99.90;;;;;;4989608;28;20120;-73
2023/07/03 12:07:21;;;;;;;21.83;11.48;;;21.30;99.90;;;;;;4987588;28;20032;-76
2023/07/03 12:09:51;;;;;;;7.80;5.20;;;21.10;99.90;;;;;;4986901;28;20061;-79
2023/07/03 12:12:24;;;;;;;14.63;7.75;;;22.00;99.90;;;;;;4987877;28;20037;-73
2023/07/03 12:15:00;;;;;;;12.23;8.48;;;21.50;99.90;;;;;;4989533;28;20054;-74
2023/07/03 12:17:34;;;;;;;13.02;9.63;;;21.80;99.90;;;;;;4990052;28;20026;-74
2023/07/03 12:20:17;;;;;;;13.00;8.23;;;22.00;99.90;;;;;;4989357;28;20040;-74
2023/07/03 12:22:44;;;;;;;14.77;8.80;;;22.20;99.90;;;;;;4989521;28;20031;-73
2023/07/03 12:25:22;;;;;;;17.80;8.70;;;22.60;99.90;;;;;;4988910;28;20045;-74
2023/07/03 12:27:49;;;;;;;14.40;8.70;;;22.90;99.90;;;;;;4988294;28;20054;-74
2023/07/03 12:30:24;;;;;;;13.75;8.20;;;22.90;99.90;;;;;;4988156;28;20535;-73
2023/07/03 12:32:51;;;;;;;10.43;7.50;;;23.00;99.90;;;;;;4989026;28;20039;-73
2023/07/03 12:35:23;;;;;;;9.13;7.10;;;22.90;99.90;;;;;;4991635;28;20030;-73
2023/07/03 12:37:55;;;;;;;11.63;7.88;;;23.00;99.90;;;;;;4991686;28;20113;-74
2023/07/03 12:40:22;;;;;;;9.98;7.68;;;22.90;99.90;;;;;;4991157;28;20388;-74
2023/07/03 12:42:49;;;;;;;8.68;6.70;;;22.90;99.90;;;;;;4991239;28;20038;-74
2023/07/03 12:45:23;;;;;;;11.00;7.72;;;22.80;99.90;;;;;;4990901;28;20030;-74
2023/07/03 12:48:01;;;;;;;10.02;6.68;;;23.10;99.90;;;;;;4991399;28;20388;-73